createdAt,value
2017-10-13T15:08:48.227Z,17.03
2017-10-13T17:51:53.778Z,8.73
2017-10-13T17:54:21.281Z,9.10
2017-10-13T18:34:19.923Z,7.73
2017-10-13T18:36:47.391Z,22.37
2017-10-13T18:39:14.811Z,17.83
2017-10-13T18:41:42.695Z,13.73
2017-10-13T18:44:10.128Z,11.90
2017-10-13T18:46:37.545Z,11.53
2017-10-13T18:49:05.004Z,11.07
2017-10-13T18:51:32.447Z,11.37
2017-10-13T18:53:59.986Z,12.30
2017-10-13T18:56:27.889Z,13.37
2017-10-13T18:58:55.318Z,14.00
2017-10-13T19:01:22.784Z,12.13
2017-10-13T19:03:50.251Z,19.20
2017-10-13T19:06:17.668Z,13.30
2017-10-13T19:08:45.076Z,14.43
2017-10-13T19:11:12.540Z,14.47
2017-10-13T19:13:39.962Z,17.17
2017-10-13T19:16:07.443Z,20.17
2017-10-13T19:18:34.919Z,19.40
2017-10-13T19:21:02.347Z,23.27
2017-10-13T19:23:29.763Z,12.37
2017-10-13T19:25:57.338Z,19.57
2017-10-13T19:28:24.798Z,18.97
2017-10-13T19:30:52.306Z,19.27
2017-10-13T19:33:19.768Z,27.47
2017-10-13T19:35:47.195Z,22.87
2017-10-13T19:38:14.697Z,18.47
2017-10-13T19:40:42.295Z,19.43
2017-10-13T19:43:09.728Z,28.63
2017-10-13T19:45:37.899Z,19.40
2017-10-13T19:48:05.605Z,24.40
2017-10-13T19:50:33.210Z,19.07
2017-10-13T19:53:00.629Z,26.57
2017-10-13T19:55:28.403Z,33.23
2017-10-13T19:57:55.897Z,29.70
2017-10-13T20:00:23.410Z,31.83
2017-10-13T20:02:50.987Z,23.17
2017-10-13T20:05:18.486Z,24.87
2017-10-13T20:07:45.993Z,28.80
2017-10-13T20:10:13.852Z,23.47
2017-10-13T20:12:41.378Z,23.10
2017-10-13T20:15:08.818Z,26.60
2017-10-13T20:17:36.423Z,29.90
2017-10-13T20:20:03.848Z,25.73
2017-10-13T20:22:31.362Z,24.52
2017-10-13T20:24:59.411Z,29.70
2017-10-13T20:27:26.850Z,27.13
2017-10-13T20:29:54.418Z,24.23
2017-10-13T20:32:21.906Z,38.53
2017-10-13T20:34:49.318Z,29.67
2017-10-13T20:37:17.259Z,26.03
2017-10-13T20:39:44.780Z,26.55
2017-10-13T20:42:12.210Z,26.95
2017-10-13T20:44:39.740Z,28.17
2017-10-13T20:47:07.227Z,23.77
2017-10-13T20:49:34.710Z,27.40
2017-10-13T20:52:02.155Z,24.60
2017-10-13T20:54:29.642Z,31.13
2017-10-13T20:56:57.057Z,24.13
2017-10-13T20:59:24.516Z,29.70
2017-10-13T21:01:52.100Z,35.80
2017-10-13T21:04:19.523Z,32.97
2017-10-13T21:06:46.949Z,39.33
2017-10-13T21:09:14.419Z,26.23
2017-10-13T21:11:41.851Z,34.20
2017-10-13T21:14:09.264Z,26.53
2017-10-13T21:16:36.723Z,30.70
2017-10-13T21:19:04.138Z,27.87
2017-10-13T21:21:31.561Z,42.20
2017-10-13T21:23:59.395Z,34.67
2017-10-13T21:26:26.841Z,29.63
2017-10-13T21:28:54.338Z,28.47
2017-10-13T21:31:21.806Z,33.93
2017-10-13T21:33:49.365Z,35.00
2017-10-13T21:36:18.219Z,35.05
2017-10-13T21:38:46.130Z,24.20
2017-10-13T21:41:13.555Z,46.00
2017-10-13T21:43:40.976Z,41.33
2017-10-13T21:46:08.540Z,33.75
2017-10-13T21:48:35.971Z,29.33
2017-10-13T21:51:03.409Z,35.73
2017-10-13T21:53:30.895Z,31.20
2017-10-13T21:55:58.322Z,28.73
2017-10-13T21:58:26.016Z,43.83
2017-10-13T22:00:53.490Z,27.73
2017-10-13T22:03:20.917Z,30.17
2017-10-13T22:05:48.395Z,36.33
2017-10-13T22:08:15.902Z,34.53
2017-10-13T22:10:43.349Z,35.40
2017-10-13T22:13:10.786Z,39.13
2017-10-13T22:15:38.458Z,38.87
2017-10-13T22:18:06.100Z,31.43
2017-10-13T22:20:33.530Z,35.17
2017-10-13T22:23:01.437Z,51.43
2017-10-13T22:25:28.858Z,32.93
2017-10-13T22:27:56.280Z,34.37
2017-10-13T22:30:23.834Z,31.97
2017-10-13T22:32:51.251Z,32.33
2017-10-13T22:35:18.869Z,36.08
2017-10-13T22:37:46.332Z,36.07
2017-10-13T22:40:13.747Z,35.03
2017-10-13T22:42:41.176Z,36.70
2017-10-13T22:45:09.057Z,34.23
2017-10-13T22:47:36.480Z,28.60
2017-10-13T22:50:03.907Z,36.10
2017-10-13T22:52:31.371Z,31.87
2017-10-13T22:54:58.803Z,31.73
2017-10-13T22:57:26.369Z,32.70
2017-10-13T22:59:53.820Z,30.37
2017-10-13T23:02:21.254Z,35.73
2017-10-13T23:04:48.684Z,35.60
2017-10-13T23:07:16.328Z,33.03
2017-10-13T23:09:43.754Z,30.97
2017-10-13T23:12:11.179Z,36.30
2017-10-13T23:14:38.657Z,34.13
2017-10-13T23:17:06.071Z,30.00
2017-10-13T23:19:33.597Z,31.50
2017-10-13T23:22:01.104Z,28.50
2017-10-13T23:24:28.523Z,31.10
2017-10-13T23:26:55.972Z,33.53
2017-10-13T23:29:24.088Z,34.87
2017-10-13T23:31:51.522Z,42.33
2017-10-13T23:34:18.949Z,45.37
2017-10-13T23:36:46.802Z,30.23
2017-10-13T23:39:14.221Z,27.77
2017-10-13T23:41:41.641Z,26.63
2017-10-13T23:44:09.470Z,33.53
2017-10-13T23:46:36.888Z,22.57
2017-10-13T23:49:04.313Z,35.53
2017-10-13T23:51:31.772Z,34.30
2017-10-13T23:53:59.336Z,40.57
2017-10-13T23:56:26.767Z,36.97
2017-10-13T23:58:54.259Z,34.58
